createdAt,value
2022-07-26T00:01:23.647Z,21.97
2022-07-26T00:03:55.936Z,22.05
2022-07-26T00:06:25.537Z,21.92
2022-07-26T00:08:54.395Z,21.79
2022-07-26T00:11:23.544Z,21.80
2022-07-26T00:13:51.802Z,21.85
2022-07-26T00:16:21.872Z,21.85
2022-07-26T00:18:50.159Z,21.78
2022-07-26T00:21:19.821Z,21.83
2022-07-26T00:23:48.218Z,21.78
2022-07-26T00:26:16.625Z,21.47
2022-07-26T00:28:45.113Z,21.48
2022-07-26T00:31:13.750Z,21.63
2022-07-26T00:33:42.154Z,21.40
2022-07-26T00:36:10.653Z,21.41
2022-07-26T00:38:40.567Z,21.53
2022-07-26T00:41:09.475Z,21.26
2022-07-26T00:43:37.946Z,21.22
2022-07-26T00:46:06.708Z,21.30
2022-07-26T00:48:35.078Z,21.48
2022-07-26T00:51:03.361Z,21.48
2022-07-26T00:53:31.566Z,21.40
2022-07-26T00:56:01.247Z,21.44
2022-07-26T00:58:29.460Z,21.23
2022-07-26T01:00:57.786Z,21.07
2022-07-26T01:03:29.069Z,20.83
2022-07-26T01:05:58.743Z,21.00
2022-07-26T01:08:27.204Z,21.00
2022-07-26T01:10:55.853Z,20.94
2022-07-26T01:13:30.684Z,21.06
2022-07-26T01:16:01.608Z,20.82
2022-07-26T01:18:30.016Z,20.79
2022-07-26T01:21:01.725Z,20.92
2022-07-26T01:23:43.028Z,20.92
2022-07-26T01:26:11.727Z,20.81
2022-07-26T01:28:42.517Z,20.75
2022-07-26T01:31:10.980Z,20.74
2022-07-26T01:33:39.383Z,20.87
2022-07-26T01:36:08.268Z,20.73
2022-07-26T01:38:36.712Z,20.78
2022-07-26T01:41:06.790Z,20.79
2022-07-26T01:43:35.204Z,21.00
2022-07-26T01:46:03.827Z,20.86
2022-07-26T01:48:33.021Z,20.96
2022-07-26T01:51:01.503Z,20.81
2022-07-26T01:53:29.868Z,20.83
2022-07-26T01:55:58.483Z,20.84
2022-07-26T01:58:28.143Z,20.78
2022-07-26T02:00:56.440Z,20.68
2022-07-26T02:03:24.739Z,20.79
2022-07-26T02:05:53.056Z,20.76
2022-07-26T02:08:22.323Z,20.84
2022-07-26T02:11:03.602Z,20.63
2022-07-26T02:13:36.055Z,20.72
2022-07-26T02:16:06.737Z,20.84
2022-07-26T02:18:36.558Z,20.67
2022-07-26T02:21:06.903Z,20.81
2022-07-26T02:23:36.039Z,20.90
2022-07-26T02:26:09.691Z,20.88
2022-07-26T02:28:39.398Z,20.81
2022-07-26T02:31:07.745Z,20.74
2022-07-26T02:33:36.073Z,20.78
2022-07-26T02:36:04.667Z,20.65
2022-07-26T02:38:32.939Z,20.78
2022-07-26T02:41:01.251Z,20.62
2022-07-26T02:43:30.608Z,20.61
2022-07-26T02:46:01.649Z,20.54
2022-07-26T02:48:31.575Z,20.71
2022-07-26T02:51:00.054Z,20.53
2022-07-26T02:53:28.793Z,20.60
2022-07-26T02:55:57.007Z,20.59
2022-07-26T02:58:26.891Z,20.62
2022-07-26T03:00:55.390Z,20.50
2022-07-26T03:03:25.138Z,20.37
2022-07-26T03:05:53.396Z,20.48
2022-07-26T03:08:21.833Z,20.61
2022-07-26T03:10:50.327Z,20.62
2022-07-26T03:13:18.717Z,20.46
2022-07-26T03:15:47.058Z,20.58
2022-07-26T03:18:15.376Z,20.55
2022-07-26T03:20:45.882Z,20.56
2022-07-26T03:23:14.158Z,20.70
2022-07-26T03:25:42.348Z,20.59
2022-07-26T03:28:13.653Z,20.61
2022-07-26T03:30:44.583Z,20.53
2022-07-26T03:33:12.840Z,20.48
2022-07-26T03:35:41.196Z,20.52
2022-07-26T03:38:11.569Z,20.49
2022-07-26T03:40:39.923Z,20.31
2022-07-26T03:43:08.210Z,20.41
2022-07-26T03:45:36.964Z,20.48
2022-07-26T03:48:06.116Z,20.48
2022-07-26T03:50:34.680Z,20.47
2022-07-26T03:53:02.915Z,20.47
2022-07-26T03:55:49.910Z,20.40
2022-07-26T03:58:19.198Z,20.48
2022-07-26T04:00:47.751Z,20.42
2022-07-26T04:03:16.044Z,20.53
2022-07-26T04:05:49.051Z,20.45
2022-07-26T04:08:17.610Z,20.49
2022-07-26T04:10:51.224Z,20.61
2022-07-26T04:13:19.732Z,20.67
2022-07-26T04:15:48.176Z,20.54
2022-07-26T04:18:16.634Z,20.65
2022-07-26T04:20:45.403Z,20.68
2022-07-26T04:23:13.987Z,20.74
2022-07-26T04:25:42.658Z,20.64
2022-07-26T04:28:13.452Z,20.85
2022-07-26T04:30:42.576Z,20.91
2022-07-26T04:33:11.148Z,20.93
2022-07-26T04:35:39.497Z,20.95
2022-07-26T04:38:07.747Z,20.94
2022-07-26T04:40:40.746Z,20.92
2022-07-26T04:43:15.414Z,20.92
2022-07-26T04:45:44.758Z,21.01
2022-07-26T04:48:13.336Z,20.58
2022-07-26T04:50:42.080Z,20.58
2022-07-26T04:53:11.128Z,20.83
2022-07-26T04:55:39.943Z,20.91
2022-07-26T04:58:08.594Z,20.55
2022-07-26T05:01:02.610Z,20.33
2022-07-26T05:03:27.267Z,20.08
2022-07-26T05:05:55.655Z,20.28
2022-07-26T05:08:24.017Z,20.30
2022-07-26T05:10:55.639Z,19.78
2022-07-26T05:13:30.046Z,19.71
2022-07-26T05:16:01.827Z,19.84
2022-07-26T05:18:45.863Z,20.04
2022-07-26T05:21:19.629Z,19.71
2022-07-26T05:23:48.417Z,19.70
2022-07-26T05:26:17.955Z,19.98
2022-07-26T05:28:46.345Z,20.07
2022-07-26T05:31:17.021Z,20.24
2022-07-26T05:33:45.537Z,20.34
2022-07-26T05:36:13.878Z,20.29
2022-07-26T05:38:42.238Z,20.33
2022-07-26T05:41:10.578Z,20.48
2022-07-26T05:43:41.311Z,20.56
2022-07-26T05:46:11.855Z,20.57
2022-07-26T05:48:42.154Z,20.44
2022-07-26T05:51:10.911Z,20.82
2022-07-26T05:53:39.738Z,20.88
2022-07-26T05:56:08.834Z,20.95
2022-07-26T05:58:38.106Z,20.90
2022-07-26T06:01:06.860Z,20.89
2022-07-26T06:03:35.157Z,20.75
2022-07-26T06:06:05.948Z,20.87
2022-07-26T06:08:34.539Z,20.95
2022-07-26T06:11:02.901Z,21.00
2022-07-26T06:13:31.267Z,21.14
2022-07-26T06:15:59.630Z,21.05
2022-07-26T06:18:28.036Z,21.10
2022-07-26T06:20:56.885Z,20.96
2022-07-26T06:23:34.634Z,20.91
2022-07-26T06:26:05.290Z,20.93
2022-07-26T06:28:34.278Z,21.05
2022-07-26T06:31:02.580Z,20.78
2022-07-26T06:33:31.073Z,20.65
2022-07-26T06:36:00.576Z,20.73
2022-07-26T06:38:30.768Z,20.97
2022-07-26T06:40:59.523Z,21.07
2022-07-26T06:43:27.802Z,21.09
2022-07-26T06:45:56.240Z,21.22
2022-07-26T06:48:24.561Z,21.30
2022-07-26T06:50:53.032Z,21.31
2022-07-26T06:53:21.373Z,21.39
2022-07-26T06:55:52.841Z,21.48
2022-07-26T06:58:21.287Z,21.58
2022-07-26T07:00:49.561Z,21.67
2022-07-26T07:03:17.954Z,21.74
2022-07-26T07:05:49.935Z,21.77
2022-07-26T07:08:19.580Z,21.68
2022-07-26T07:10:50.904Z,21.74
2022-07-26T07:13:19.724Z,21.78
2022-07-26T07:15:47.991Z,21.74
2022-07-26T07:18:16.498Z,21.71
2022-07-26T07:20:44.924Z,21.70
2022-07-26T07:23:13.226Z,21.76
2022-07-26T07:25:41.514Z,21.74
2022-07-26T07:28:14.677Z,21.82
2022-07-26T07:30:43.441Z,21.76
2022-07-26T07:33:22.863Z,21.74
2022-07-26T07:35:53.771Z,21.77
2022-07-26T07:38:22.382Z,21.71
2022-07-26T07:40:51.155Z,21.82
2022-07-26T07:43:20.874Z,21.86
2022-07-26T07:45:49.128Z,21.81
2022-07-26T07:48:17.571Z,21.80
2022-07-26T07:50:46.318Z,21.84
2022-07-26T07:53:14.725Z,21.95
2022-07-26T07:55:46.102Z,22.05
2022-07-26T07:58:17.326Z,22.15
2022-07-26T08:00:48.474Z,22.20
2022-07-26T08:03:18.745Z,22.59
2022-07-26T08:05:49.459Z,22.77
2022-07-26T08:08:22.285Z,22.91
2022-07-26T08:10:53.330Z,22.98
2022-07-26T08:13:22.970Z,23.04
2022-07-26T08:15:54.347Z,23.08
2022-07-26T08:18:25.236Z,23.02
2022-07-26T08:20:55.080Z,23.11
2022-07-26T08:23:24.199Z,23.14
2022-07-26T08:25:58.021Z,23.15
2022-07-26T08:31:21.026Z,23.07
2022-07-26T08:33:49.964Z,22.94
2022-07-26T08:36:19.147Z,22.84
2022-07-26T08:38:48.443Z,22.94
2022-07-26T08:41:17.934Z,22.86
2022-07-26T08:43:52.646Z,22.89
2022-07-26T08:46:27.457Z,22.89
2022-07-26T08:48:56.719Z,22.85
2022-07-26T08:51:27.014Z,22.77
2022-07-26T08:54:04.685Z,22.62
2022-07-26T08:56:35.667Z,22.17
2022-07-26T08:59:06.577Z,22.76
2022-07-26T09:01:36.828Z,22.24
2022-07-26T09:04:31.479Z,22.26
2022-07-26T09:07:04.587Z,22.17
2022-07-26T09:09:34.239Z,22.17
2022-07-26T09:12:17.695Z,22.19
2022-07-26T09:14:47.558Z,22.23
2022-07-26T09:17:21.231Z,22.08
2022-07-26T09:20:09.381Z,21.93
2022-07-26T09:22:38.855Z,22.13
2022-07-26T09:25:22.478Z,22.19
2022-07-26T09:27:51.471Z,22.32
2022-07-26T09:30:20.768Z,22.39
2022-07-26T09:33:02.305Z,22.49
2022-07-26T09:35:50.088Z,22.54
2022-07-26T09:38:20.832Z,22.63
2022-07-26T09:40:50.883Z,22.67
2022-07-26T09:43:24.453Z,22.54
2022-07-26T09:46:06.057Z,22.52
2022-07-26T09:49:08.253Z,22.53
2022-07-26T09:51:39.152Z,22.37
2022-07-26T09:54:08.180Z,22.29
2022-07-26T09:56:49.846Z,22.39
2022-07-26T09:59:21.675Z,22.49
2022-07-26T10:01:51.729Z,22.48
2022-07-26T10:04:22.757Z,22.57
2022-07-26T10:06:51.531Z,22.74
2022-07-26T10:09:20.599Z,22.81
2022-07-26T10:11:54.323Z,22.84
2022-07-26T10:14:45.824Z,22.97
2022-07-26T10:17:49.395Z,23.10
2022-07-26T10:20:51.945Z,23.30
2022-07-26T10:23:42.472Z,23.40
2022-07-26T10:26:37.034Z,23.50
2022-07-26T10:29:28.070Z,23.55
2022-07-26T10:32:17.510Z,23.41
2022-07-26T10:34:46.443Z,23.51
2022-07-26T10:37:28.095Z,23.79
2022-07-26T10:40:22.756Z,23.97
2022-07-26T10:42:51.177Z,23.96
2022-07-26T10:45:23.379Z,23.50
2022-07-26T10:48:12.233Z,23.80
2022-07-26T10:50:41.661Z,23.91
2022-07-26T10:53:18.625Z,23.83
2022-07-26T10:55:51.954Z,23.94
2022-07-26T10:58:21.289Z,24.04
2022-07-26T11:00:58.997Z,24.24
2022-07-26T11:03:38.893Z,24.22
2022-07-26T11:06:14.705Z,24.06
2022-07-26T11:08:48.335Z,23.93
2022-07-26T11:11:30.358Z,24.13
2022-07-26T11:14:10.917Z,24.22
2022-07-26T11:16:41.311Z,24.20
2022-07-26T11:19:18.427Z,24.18
2022-07-26T11:21:55.663Z,24.19
2022-07-26T11:24:26.872Z,24.03
2022-07-26T11:26:55.885Z,24.06
2022-07-26T11:29:38.779Z,23.87
2022-07-26T11:32:19.017Z,23.68
2022-07-26T11:34:48.005Z,23.80
2022-07-26T11:37:16.330Z,23.81
2022-07-26T11:39:48.116Z,23.72
2022-07-26T11:42:19.658Z,23.62
2022-07-26T11:44:50.078Z,23.58
2022-07-26T11:47:20.503Z,23.68
2022-07-26T11:50:01.031Z,23.79
2022-07-26T11:52:37.971Z,23.89
2022-07-26T11:55:09.780Z,23.92
2022-07-26T11:57:38.340Z,24.20
2022-07-26T12:00:08.779Z,24.18
2022-07-26T12:02:39.911Z,24.29
2022-07-26T12:05:16.449Z,24.42
2022-07-26T12:07:56.943Z,24.55
2022-07-26T12:10:29.484Z,24.50
2022-07-26T12:13:12.147Z,24.70
2022-07-26T12:15:49.316Z,24.70
2022-07-26T12:18:28.875Z,24.09
2022-07-26T12:21:06.588Z,24.58
2022-07-26T12:23:48.284Z,24.60
2022-07-26T12:26:26.093Z,24.63
2022-07-26T12:28:55.491Z,24.83
2022-07-26T12:31:30.584Z,24.81
2022-07-26T12:33:59.946Z,25.06
2022-07-26T12:36:30.024Z,24.98
2022-07-26T12:39:00.456Z,24.96
2022-07-26T12:41:39.211Z,25.08
2022-07-26T12:44:11.985Z,25.19
2022-07-26T12:46:41.067Z,25.30
2022-07-26T12:49:09.565Z,25.26
2022-07-26T12:51:38.003Z,25.06
2022-07-26T12:54:07.306Z,25.05
2022-07-26T12:56:37.109Z,24.93
2022-07-26T12:59:05.482Z,24.92
2022-07-26T13:01:34.446Z,24.63
2022-07-26T13:04:02.958Z,24.73
2022-07-26T13:06:32.933Z,24.76
2022-07-26T13:09:01.825Z,24.79
2022-07-26T13:11:30.356Z,24.72
2022-07-26T13:14:00.025Z,24.57
2022-07-26T13:16:28.375Z,24.67
2022-07-26T13:18:56.667Z,24.62
2022-07-26T13:21:25.048Z,24.52
2022-07-26T13:23:53.396Z,24.15
2022-07-26T13:26:21.873Z,24.54
2022-07-26T13:28:50.943Z,24.74
2022-07-26T13:31:20.721Z,24.90
2022-07-26T13:33:49.165Z,24.72
2022-07-26T13:36:17.579Z,23.91
2022-07-26T13:38:45.969Z,24.10
2022-07-26T13:41:14.424Z,24.15
2022-07-26T13:43:42.796Z,24.26
2022-07-26T13:46:11.511Z,23.96
2022-07-26T13:48:57.941Z,24.00
2022-07-26T13:51:49.937Z,24.03
2022-07-26T13:54:20.264Z,24.02
2022-07-26T13:56:49.526Z,23.70
2022-07-26T13:59:18.115Z,23.86
2022-07-26T14:01:46.758Z,23.80
2022-07-26T14:04:17.145Z,23.97
2022-07-26T14:06:45.734Z,23.91
2022-07-26T14:09:15.407Z,23.69
2022-07-26T14:11:44.490Z,24.10
2022-07-26T14:14:13.862Z,23.93
2022-07-26T14:16:42.553Z,24.14
2022-07-26T14:19:11.236Z,24.26
2022-07-26T14:21:47.482Z,23.73
2022-07-26T14:24:29.087Z,23.90
2022-07-26T14:26:59.721Z,24.01
2022-07-26T14:29:29.443Z,24.07
2022-07-26T14:31:57.988Z,24.04
2022-07-26T14:34:26.674Z,24.04
2022-07-26T14:36:56.286Z,23.58
2022-07-26T14:39:24.656Z,23.93
2022-07-26T14:41:53.618Z,23.76
2022-07-26T14:44:22.033Z,23.79
2022-07-26T14:46:50.332Z,23.87
2022-07-26T14:49:18.849Z,23.87
2022-07-26T14:51:47.936Z,23.71
2022-07-26T14:54:18.159Z,23.77
2022-07-26T14:56:46.571Z,23.76
2022-07-26T14:59:14.880Z,23.68
2022-07-26T15:01:43.233Z,23.67
2022-07-26T15:04:12.144Z,23.75
2022-07-26T15:06:40.697Z,23.82
2022-07-26T15:09:08.976Z,23.90
2022-07-26T15:11:38.788Z,23.97
2022-07-26T15:14:07.216Z,23.99
2022-07-26T15:16:35.832Z,24.09
2022-07-26T15:19:04.342Z,24.09
2022-07-26T15:21:32.745Z,24.07
2022-07-26T15:24:01.080Z,24.03
2022-07-26T15:26:29.392Z,23.90
2022-07-26T15:28:59.093Z,23.83
2022-07-26T15:31:37.168Z,23.81
2022-07-26T15:34:08.953Z,23.78
2022-07-26T15:36:37.865Z,23.85
2022-07-26T15:39:16.504Z,23.75
2022-07-26T15:41:46.172Z,23.68
2022-07-26T15:44:18.185Z,23.46
2022-07-26T15:46:48.671Z,23.61
2022-07-26T15:49:18.316Z,23.60
2022-07-26T15:51:47.348Z,23.28
2022-07-26T15:54:16.986Z,23.13
2022-07-26T15:56:45.746Z,22.58
2022-07-26T15:59:15.529Z,23.20
2022-07-26T16:01:43.844Z,23.08
2022-07-26T16:04:12.727Z,23.13
2022-07-26T16:06:42.234Z,23.12
2022-07-26T16:09:17.241Z,23.12
2022-07-26T16:11:47.326Z,23.24
2022-07-26T16:14:17.610Z,23.22
2022-07-26T16:16:46.322Z,23.30
2022-07-26T16:19:15.102Z,23.09
2022-07-26T16:21:43.789Z,23.14
2022-07-26T16:24:12.066Z,23.05
2022-07-26T16:26:40.843Z,22.88
2022-07-26T16:29:09.508Z,22.74
2022-07-26T16:31:41.531Z,22.57
2022-07-26T16:34:10.421Z,22.73
2022-07-26T16:36:39.385Z,22.72
2022-07-26T16:39:08.856Z,22.71
2022-07-26T16:41:37.574Z,22.87
2022-07-26T16:44:06.452Z,22.86
2022-07-26T16:46:34.825Z,22.84
2022-07-26T16:49:05.065Z,22.69
2022-07-26T16:51:33.627Z,22.42
2022-07-26T16:54:01.960Z,22.45
2022-07-26T16:56:30.397Z,22.45
2022-07-26T16:58:58.726Z,22.44
2022-07-26T17:01:27.127Z,22.45
2022-07-26T17:03:55.567Z,22.46
2022-07-26T17:06:25.535Z,22.45
2022-07-26T17:08:53.946Z,22.24
2022-07-26T17:11:22.245Z,22.04
2022-07-26T17:13:50.746Z,22.11
2022-07-26T17:16:24.282Z,22.28
2022-07-26T17:18:54.860Z,22.32
2022-07-26T17:21:24.995Z,22.33
2022-07-26T17:23:53.560Z,22.37
2022-07-26T17:26:22.099Z,22.56
2022-07-26T17:28:50.446Z,22.58
2022-07-26T17:31:18.755Z,22.67
2022-07-26T17:33:47.279Z,22.64
2022-07-26T17:36:29.002Z,22.59
2022-07-26T17:39:02.667Z,22.66
2022-07-26T17:41:32.638Z,22.66
2022-07-26T17:44:03.323Z,22.76
2022-07-26T17:46:33.381Z,22.81
2022-07-26T17:49:02.585Z,22.83
2022-07-26T17:51:32.250Z,22.69
2022-07-26T17:54:00.893Z,22.70
2022-07-26T17:56:29.727Z,22.74
2022-07-26T17:58:58.343Z,22.71
2022-07-26T18:01:28.267Z,22.68
2022-07-26T18:03:56.707Z,22.61
2022-07-26T18:06:24.971Z,22.56
2022-07-26T18:08:54.731Z,22.62
2022-07-26T18:11:23.004Z,22.53
2022-07-26T18:13:51.334Z,22.59
2022-07-26T18:16:19.844Z,22.49
2022-07-26T18:18:48.189Z,22.52
2022-07-26T18:21:16.501Z,22.52
2022-07-26T18:24:06.765Z,22.54
2022-07-26T18:26:34.855Z,22.50
2022-07-26T18:29:03.995Z,22.34
2022-07-26T18:31:32.410Z,22.32
2022-07-26T18:34:05.930Z,22.36
2022-07-26T18:36:35.747Z,21.71
2022-07-26T18:39:04.316Z,22.26
2022-07-26T18:41:34.284Z,22.31
2022-07-26T18:44:06.217Z,21.64
2022-07-26T18:46:34.609Z,22.25
2022-07-26T18:49:03.099Z,22.23
2022-07-26T18:51:31.854Z,22.11
2022-07-26T18:54:00.447Z,22.02
2022-07-26T18:56:28.909Z,21.87
2022-07-26T18:58:58.626Z,21.91
2022-07-26T19:01:27.109Z,21.93
2022-07-26T19:03:55.560Z,21.88
2022-07-26T19:06:24.703Z,21.94
2022-07-26T19:08:53.508Z,22.01
2022-07-26T19:11:21.832Z,22.02
2022-07-26T19:13:50.187Z,21.95
2022-07-26T19:16:20.030Z,22.01
2022-07-26T19:18:50.806Z,22.01
2022-07-26T19:21:21.158Z,21.97
2022-07-26T19:23:49.650Z,21.74
2022-07-26T19:26:18.020Z,21.91
2022-07-26T19:28:46.541Z,21.87
2022-07-26T19:31:15.264Z,21.92
2022-07-26T19:33:45.074Z,21.84
2022-07-26T19:36:15.970Z,21.81
2022-07-26T19:38:54.122Z,21.84
2022-07-26T19:41:22.440Z,21.80
2022-07-26T19:43:50.771Z,21.87
2022-07-26T19:46:19.296Z,21.82
2022-07-26T19:48:49.103Z,21.81
2022-07-26T19:51:17.513Z,21.84
2022-07-26T19:53:46.252Z,21.78
2022-07-26T19:56:15.033Z,21.79
2022-07-26T19:58:43.439Z,21.75
2022-07-26T20:01:11.838Z,21.81
2022-07-26T20:03:40.266Z,21.71
2022-07-26T20:06:10.133Z,21.61
2022-07-26T20:08:39.755Z,21.60
2022-07-26T20:11:08.176Z,21.56
2022-07-26T20:13:36.619Z,21.56
2022-07-26T20:16:06.017Z,21.55
2022-07-26T20:18:34.469Z,21.45
2022-07-26T20:21:03.208Z,21.38
2022-07-26T20:23:33.918Z,21.46
2022-07-26T20:26:02.202Z,21.43
2022-07-26T20:28:30.573Z,21.43
2022-07-26T20:30:59.294Z,21.37
2022-07-26T20:33:27.741Z,21.39
2022-07-26T20:35:56.059Z,21.18
2022-07-26T20:38:25.181Z,21.21
2022-07-26T20:40:54.898Z,21.18
2022-07-26T20:43:23.197Z,21.17
2022-07-26T20:45:53.735Z,21.21
2022-07-26T20:48:22.330Z,21.11
2022-07-26T20:50:50.826Z,21.09
2022-07-26T20:53:19.125Z,21.10
2022-07-26T20:55:47.447Z,21.01
2022-07-26T20:58:17.923Z,21.05
2022-07-26T21:00:46.268Z,20.96
2022-07-26T21:03:16.786Z,20.94
2022-07-26T21:05:45.183Z,20.88
2022-07-26T21:08:13.771Z,20.87
2022-07-26T21:10:42.189Z,20.84
2022-07-26T21:13:10.434Z,20.78
2022-07-26T21:15:42.106Z,20.77
2022-07-26T21:18:12.257Z,20.70
2022-07-26T21:20:40.821Z,20.65
2022-07-26T21:23:17.366Z,20.61
2022-07-26T21:25:46.822Z,20.65
2022-07-26T21:28:15.316Z,20.64
2022-07-26T21:30:45.082Z,20.62
2022-07-26T21:33:13.793Z,20.58
2022-07-26T21:35:43.099Z,20.52
2022-07-26T21:38:11.839Z,20.50
2022-07-26T21:40:40.268Z,20.46
2022-07-26T21:43:08.660Z,20.42
2022-07-26T21:45:37.070Z,20.33
2022-07-26T21:48:07.819Z,20.29
2022-07-26T21:50:35.998Z,20.26
2022-07-26T21:53:04.312Z,20.15
2022-07-26T21:55:32.667Z,20.12
2022-07-26T21:58:01.104Z,20.09
2022-07-26T22:00:29.613Z,20.07
2022-07-26T22:02:57.913Z,20.04
2022-07-26T22:05:38.088Z,20.02
2022-07-26T22:08:13.614Z,19.97
2022-07-26T22:10:45.434Z,20.00
2022-07-26T22:13:14.156Z,19.92
2022-07-26T22:15:43.120Z,19.93
2022-07-26T22:18:11.576Z,19.91
2022-07-26T22:20:41.486Z,19.83
2022-07-26T22:23:12.034Z,19.71
2022-07-26T22:25:40.909Z,19.75
2022-07-26T22:28:10.865Z,19.62
2022-07-26T22:30:40.544Z,19.53
2022-07-26T22:33:11.685Z,19.48
2022-07-26T22:35:41.497Z,19.50
2022-07-26T22:38:11.558Z,19.45
2022-07-26T22:40:41.575Z,19.41
2022-07-26T22:43:10.803Z,19.31
2022-07-26T22:45:39.969Z,19.10
2022-07-26T22:48:09.333Z,19.07
2022-07-26T22:50:37.856Z,18.92
2022-07-26T22:53:07.580Z,18.90
2022-07-26T22:55:35.937Z,18.73
2022-07-26T22:58:04.434Z,18.43
2022-07-26T23:00:32.895Z,18.57
2022-07-26T23:03:01.265Z,18.57
2022-07-26T23:05:45.390Z,18.32
2022-07-26T23:11:06.107Z,18.18
2022-07-26T23:13:34.875Z,18.22
2022-07-26T23:16:03.261Z,18.26
2022-07-26T23:18:34.682Z,18.22
2022-07-26T23:21:04.210Z,18.09
2022-07-26T23:23:34.055Z,18.19
2022-07-26T23:26:02.459Z,18.21
2022-07-26T23:28:37.152Z,18.31
2022-07-26T23:31:09.556Z,18.26
2022-07-26T23:33:52.971Z,18.17
2022-07-26T23:36:24.890Z,18.16
2022-07-26T23:38:55.669Z,18.10
2022-07-26T23:41:24.110Z,18.14
2022-07-26T23:43:52.888Z,18.13
2022-07-26T23:46:21.589Z,18.04
2022-07-26T23:48:50.285Z,17.97
2022-07-26T23:51:19.453Z,17.92
2022-07-26T23:53:48.455Z,18.03
2022-07-26T23:56:18.514Z,18.07
2022-07-26T23:58:46.989Z,17.93
